San Antonio, Texas
Traffic Map
Current Weather Conditions
San Antonio, Texas
Broken Clouds
Broken Clouds
75°
Feels Like: 75°
Wind Chill: 75° Ceiling: 900
Heat Index: 75° Visibility: 10mi
Dew Point: 71° Wind: 7mph
Humidity: 87% Direction: 170° (S)
Pressure: 30in Gusts: 0mph
Raw Report DataKSAT 250851Z 17006KT 10SM BKN009 BKN250 24/22 A3000 RMK AO2 SLP139 BKN009 V SCT T02390217 58012 $
Traffic Incident Summary
Active as of:
Severity:
Category:
InformationThere was an issue retrieving the traffic information for this location. Please try a different location or try again shortly.
Advertisements